createdAt,value
2022-12-03T09:13:51.213Z,38.90
2022-12-03T09:14:52.613Z,36.20
2022-12-03T09:15:52.195Z,35.00
2022-12-03T09:16:52.269Z,35.30
2022-12-03T09:17:52.171Z,35.30
2022-12-03T09:18:52.232Z,36.50
2022-12-03T09:19:52.137Z,35.00
2022-12-03T09:20:52.132Z,38.20
2022-12-03T09:21:52.122Z,38.00
2022-12-03T09:22:52.107Z,35.40
2022-12-03T09:23:52.080Z,36.10
2022-12-03T09:24:52.573Z,35.60
2022-12-03T09:25:52.074Z,37.60
2022-12-03T09:26:52.078Z,38.30
2022-12-03T09:27:52.043Z,35.90
2022-12-03T09:28:52.020Z,32.00
2022-12-03T09:29:52.008Z,37.10
2022-12-03T09:30:52.037Z,35.80
2022-12-03T09:31:52.182Z,36.30
2022-12-03T09:32:51.973Z,32.30
2022-12-03T09:33:51.949Z,33.80
2022-12-03T09:34:52.248Z,33.90
2022-12-03T09:35:51.922Z,33.20
2022-12-03T09:36:51.932Z,36.10
2022-12-03T09:37:51.939Z,36.40
2022-12-03T09:38:51.937Z,39.10
2022-12-03T09:39:51.891Z,34.20
2022-12-03T09:40:51.881Z,40.40
2022-12-03T09:41:51.860Z,35.90
2022-12-03T09:42:51.876Z,36.40
2022-12-03T09:44:10.894Z,35.60
2022-12-03T09:44:52.134Z,37.10
2022-12-03T09:45:51.897Z,34.90
2022-12-03T09:46:51.849Z,36.90
2022-12-03T09:47:51.784Z,36.00
2022-12-03T09:48:51.776Z,36.40
2022-12-03T09:49:52.191Z,35.20
2022-12-03T09:50:51.776Z,39.10
2022-12-03T09:51:51.832Z,36.40
2022-12-03T09:52:51.734Z,37.80
2022-12-03T09:53:51.693Z,34.50
2022-12-03T09:54:51.682Z,35.50
2022-12-03T09:55:51.686Z,38.20
2022-12-03T09:56:51.675Z,33.90
2022-12-03T09:57:51.633Z,36.90
2022-12-03T09:58:51.641Z,34.60
2022-12-03T09:59:52.026Z,36.60
2022-12-03T10:00:51.636Z,41.10
2022-12-03T10:01:51.717Z,37.40
2022-12-03T10:02:51.589Z,38.10
2022-12-03T10:03:51.595Z,37.00
2022-12-03T10:04:52.023Z,31.60
2022-12-03T10:05:51.528Z,36.70
2022-12-03T10:06:51.566Z,40.70
2022-12-03T10:07:51.605Z,36.70
2022-12-03T10:08:51.517Z,31.20
2022-12-03T10:09:50.555Z,35.40
2022-12-03T10:10:51.522Z,37.80
2022-12-03T10:11:51.501Z,35.60
2022-12-03T10:12:51.450Z,38.20
2022-12-03T10:13:51.462Z,39.90
2022-12-03T10:14:51.779Z,37.90
2022-12-03T10:15:51.432Z,36.80
2022-12-03T10:16:51.499Z,36.60
2022-12-03T10:17:51.380Z,39.70
2022-12-03T10:18:51.383Z,37.80
2022-12-03T10:19:51.722Z,35.70
2022-12-03T10:20:51.354Z,41.90
2022-12-03T10:21:51.328Z,39.70
2022-12-03T10:22:51.332Z,37.20
2022-12-03T10:23:55.293Z,38.30
2022-12-03T10:24:51.790Z,38.20
2022-12-03T10:25:51.309Z,34.10
2022-12-03T10:26:51.259Z,43.50
2022-12-03T10:27:51.250Z,41.30
2022-12-03T10:28:51.247Z,38.60
2022-12-03T10:29:51.367Z,35.40
2022-12-03T10:30:51.233Z,39.10
2022-12-03T10:31:51.203Z,37.40
2022-12-03T10:32:51.196Z,36.70
2022-12-03T10:33:51.207Z,38.20
2022-12-03T10:34:51.348Z,39.50
2022-12-03T10:35:51.143Z,38.90
2022-12-03T10:36:51.138Z,37.10
2022-12-03T10:37:51.191Z,38.70
2022-12-03T10:38:51.123Z,35.40
2022-12-03T10:39:55.549Z,36.20
2022-12-03T10:40:51.085Z,37.20
2022-12-03T10:41:51.060Z,38.70
2022-12-03T10:42:51.117Z,41.30
2022-12-03T10:43:51.031Z,39.10
2022-12-03T10:44:51.475Z,38.30
2022-12-03T10:45:51.046Z,38.30
2022-12-03T10:46:51.103Z,35.60
2022-12-03T10:47:51.034Z,39.00
2022-12-03T10:48:51.003Z,39.40
2022-12-03T10:49:50.960Z,41.40
2022-12-03T10:50:50.953Z,40.90
2022-12-03T10:51:50.928Z,39.90
2022-12-03T10:52:50.930Z,38.30
2022-12-03T10:53:50.964Z,38.20
2022-12-03T10:54:51.339Z,40.90
2022-12-03T10:55:50.894Z,37.90
2022-12-03T10:56:50.881Z,37.50
2022-12-03T10:57:50.878Z,38.80
2022-12-03T10:58:50.886Z,40.10
2022-12-03T10:59:50.872Z,38.10
2022-12-03T11:00:50.818Z,40.10
2022-12-03T11:01:50.940Z,38.10
2022-12-03T11:02:56.691Z,40.60
2022-12-03T11:03:50.860Z,34.60
2022-12-03T11:04:51.116Z,37.90
2022-12-03T11:05:50.775Z,37.40
2022-12-03T11:06:50.765Z,38.60
2022-12-03T11:07:50.833Z,39.60
2022-12-03T11:08:56.533Z,39.60
2022-12-03T11:09:50.701Z,39.00
2022-12-03T11:10:50.682Z,39.20
2022-12-03T11:11:50.675Z,37.00
2022-12-03T11:12:50.679Z,37.20
2022-12-03T11:13:50.712Z,38.50
2022-12-03T11:14:50.968Z,38.40
2022-12-03T11:15:50.654Z,41.00
2022-12-03T11:16:50.621Z,35.30
2022-12-03T11:17:50.615Z,37.90
2022-12-03T11:18:50.590Z,39.80
2022-12-03T11:19:50.605Z,39.00
2022-12-03T11:20:50.550Z,39.90
2022-12-03T11:21:50.549Z,41.60
2022-12-03T11:22:50.545Z,40.70
2022-12-03T11:23:50.514Z,36.00
2022-12-03T11:24:50.540Z,39.00
2022-12-03T11:25:50.727Z,37.10
2022-12-03T11:26:50.468Z,36.00
2022-12-03T11:27:50.466Z,39.90
2022-12-03T11:28:50.519Z,38.10
2022-12-03T11:29:50.485Z,35.60
2022-12-03T11:30:50.527Z,38.90
2022-12-03T11:31:50.463Z,33.40
2022-12-03T11:32:50.405Z,39.20
2022-12-03T11:33:50.414Z,37.10
2022-12-03T11:34:50.459Z,40.50
2022-12-03T11:35:50.347Z,39.00
2022-12-03T11:37:01.435Z,42.80
2022-12-03T11:37:50.354Z,33.50
2022-12-03T11:38:53.380Z,38.80
2022-12-03T11:39:50.439Z,38.20
2022-12-03T11:40:50.289Z,34.80
2022-12-03T11:41:50.340Z,36.90
2022-12-03T11:42:50.286Z,32.90
2022-12-03T11:43:50.275Z,42.70
2022-12-03T11:44:50.254Z,40.20
2022-12-03T11:45:50.246Z,39.70
2022-12-03T11:46:50.286Z,40.70
2022-12-03T11:47:50.214Z,34.70
2022-12-03T11:48:50.216Z,37.50
2022-12-03T11:49:50.181Z,41.00
2022-12-03T11:50:50.149Z,33.50
2022-12-03T11:51:50.169Z,37.00
2022-12-03T11:52:50.177Z,35.20
2022-12-03T11:53:50.137Z,34.20
2022-12-03T11:54:50.116Z,34.70
2022-12-03T11:55:50.098Z,39.00
2022-12-03T11:57:11.118Z,34.80
2022-12-03T11:57:50.080Z,33.60
2022-12-03T11:59:24.083Z,30.30
2022-12-03T11:59:50.045Z,39.20
2022-12-03T12:00:50.029Z,31.80
2022-12-03T12:01:50.034Z,28.70
2022-12-03T12:02:50.106Z,33.60
2022-12-03T12:03:50.208Z,32.70
2022-12-03T12:04:49.998Z,33.00
2022-12-03T12:05:52.919Z,36.70
2022-12-03T12:06:53.351Z,34.40
2022-12-03T12:07:50.052Z,32.60
2022-12-03T12:08:49.941Z,32.60
2022-12-03T12:09:49.906Z,33.40
2022-12-03T12:10:49.913Z,30.40
2022-12-03T12:11:49.959Z,32.30
2022-12-03T12:12:54.899Z,28.70
2022-12-03T12:13:49.888Z,36.10
2022-12-03T12:14:49.858Z,36.60
2022-12-03T12:15:49.899Z,32.80
2022-12-03T12:16:49.962Z,31.80
2022-12-03T12:17:49.796Z,37.50
2022-12-03T12:18:53.865Z,36.10
2022-12-03T12:19:54.222Z,32.20
2022-12-03T12:20:49.799Z,34.00
2022-12-03T12:21:49.759Z,28.60
2022-12-03T12:22:49.742Z,29.50
2022-12-03T12:23:49.748Z,28.90
2022-12-03T12:24:49.720Z,31.60
2022-12-03T12:25:54.204Z,33.80
2022-12-03T12:26:49.821Z,35.30
2022-12-03T12:27:49.674Z,29.10
2022-12-03T12:28:49.714Z,37.00
2022-12-03T12:29:49.675Z,29.40
2022-12-03T12:30:49.685Z,34.90
2022-12-03T12:31:53.892Z,32.20
2022-12-03T12:32:49.618Z,33.20
2022-12-03T12:34:22.455Z,36.10
2022-12-03T12:34:49.604Z,33.20
2022-12-03T12:35:49.556Z,34.20
2022-12-03T12:36:49.565Z,28.50
2022-12-03T12:37:56.666Z,40.00
2022-12-03T12:38:49.570Z,33.40
2022-12-03T12:45:15.527Z,36.50
2022-12-03T12:48:39.715Z,36.60
2022-12-03T12:49:38.743Z,37.50
2022-12-03T12:50:38.609Z,37.90
2022-12-03T12:51:38.501Z,36.50
2022-12-03T12:52:38.451Z,36.60
2022-12-03T12:53:38.602Z,39.80
2022-12-03T12:55:19.025Z,36.30
2022-12-03T12:55:38.558Z,40.10
2022-12-03T12:56:38.428Z,35.70
2022-12-03T12:57:39.605Z,32.60
2022-12-03T12:58:38.389Z,35.10
2022-12-03T12:59:38.419Z,38.40
2022-12-03T13:00:38.432Z,34.50
2022-12-03T13:01:38.536Z,33.70
2022-12-03T13:03:00.547Z,36.80
2022-12-03T13:03:38.314Z,36.50
2022-12-03T13:04:38.341Z,39.80
2022-12-03T13:05:38.289Z,37.60
2022-12-03T13:06:38.330Z,39.50
2022-12-03T13:07:38.326Z,39.40
2022-12-03T13:08:38.269Z,39.10
2022-12-03T13:09:38.299Z,33.70
2022-12-03T13:11:55.708Z,38.10
2022-12-03T13:12:53.348Z,38.00
2022-12-03T13:13:53.339Z,40.70
2022-12-03T13:14:53.400Z,37.40
2022-12-03T13:15:53.400Z,36.50
2022-12-03T13:16:53.430Z,36.40
2022-12-03T13:24:36.574Z,36.00
2022-12-03T13:25:32.773Z,40.00
2022-12-03T13:26:38.774Z,39.40
2022-12-03T13:27:18.091Z,40.60
2022-12-03T13:29:50.288Z,37.10
2022-12-03T13:30:32.800Z,36.80
2022-12-03T13:31:32.794Z,40.20
2022-12-03T13:33:49.523Z,39.20
2022-12-03T13:34:46.147Z,38.50
2022-12-03T13:36:07.289Z,33.80
2022-12-03T13:36:48.409Z,40.90
2022-12-03T13:37:46.120Z,39.60
2022-12-03T13:38:46.105Z,40.70
2022-12-03T13:40:01.678Z,41.00
2022-12-03T13:40:46.083Z,40.00
2022-12-03T13:42:59.369Z,36.50
2022-12-03T13:44:00.331Z,37.10
2022-12-03T13:45:00.373Z,40.20
2022-12-03T13:46:00.443Z,36.70
2022-12-03T13:47:21.316Z,38.20
2022-12-03T13:48:00.312Z,38.20
2022-12-03T13:50:28.171Z,39.20
2022-12-03T13:51:21.065Z,37.80
2022-12-03T13:56:02.323Z,37.80
2022-12-03T14:17:00.461Z,34.40
2022-12-03T14:22:28.156Z,39.00
2022-12-03T14:23:14.562Z,38.90
2022-12-03T14:24:14.549Z,38.10
2022-12-03T14:25:14.546Z,33.90
2022-12-03T14:26:14.526Z,36.40
2022-12-03T14:40:03.300Z,44.20
2022-12-03T14:41:04.259Z,45.30
2022-12-03T14:42:04.247Z,38.20
2022-12-03T14:43:04.261Z,42.80
2022-12-03T14:44:04.227Z,40.30
2022-12-03T14:45:04.216Z,40.90
2022-12-03T14:46:04.245Z,39.90
2022-12-03T14:47:04.213Z,36.70
2022-12-03T14:48:04.204Z,40.80
2022-12-03T14:49:03.185Z,37.70
2022-12-03T14:50:04.166Z,39.30
2022-12-03T14:51:04.154Z,44.50
2022-12-03T14:52:04.125Z,39.60
2022-12-03T14:53:04.097Z,41.70
2022-12-03T14:54:04.083Z,42.30
2022-12-03T14:55:04.093Z,41.80
2022-12-03T14:56:04.085Z,42.30
2022-12-03T14:57:04.057Z,43.50
2022-12-03T14:58:04.079Z,41.00
2022-12-03T14:59:04.043Z,49.00
2022-12-03T15:00:04.015Z,41.90
2022-12-03T15:01:04.038Z,40.90
2022-12-03T15:02:04.166Z,41.40
2022-12-03T15:03:04.039Z,41.60
2022-12-03T15:04:03.958Z,47.20
2022-12-03T15:05:03.947Z,44.50
2022-12-03T15:06:08.316Z,36.50
2022-12-03T15:07:03.976Z,41.80
2022-12-03T15:08:03.993Z,40.70
2022-12-03T15:09:03.916Z,42.90
2022-12-03T15:10:03.886Z,42.10
2022-12-03T15:11:03.860Z,40.90
2022-12-03T15:12:03.980Z,40.20
2022-12-03T15:13:03.822Z,40.40
2022-12-03T15:14:03.898Z,40.90
2022-12-03T15:15:03.880Z,43.90
2022-12-03T15:16:03.838Z,42.60
2022-12-03T15:17:03.867Z,43.50
2022-12-03T15:18:03.814Z,39.20
2022-12-03T15:19:03.915Z,39.80
2022-12-03T15:20:03.770Z,42.30
2022-12-03T15:21:03.784Z,42.80
2022-12-03T15:22:03.755Z,41.50
2022-12-03T15:23:03.730Z,43.30
2022-12-03T15:24:03.711Z,40.20
2022-12-03T15:25:03.739Z,40.60
2022-12-03T15:26:03.701Z,41.40
2022-12-03T15:27:03.671Z,41.10
2022-12-03T15:28:03.637Z,42.90
2022-12-03T15:29:03.608Z,46.50
2022-12-03T15:30:03.660Z,39.80
2022-12-03T15:31:03.687Z,40.60
2022-12-03T15:32:03.588Z,42.70
2022-12-03T15:33:03.580Z,44.00
2022-12-03T15:34:03.550Z,47.40
2022-12-03T15:35:03.631Z,41.10
2022-12-03T15:36:03.541Z,44.20
2022-12-03T15:37:03.511Z,44.20
2022-12-03T15:38:03.521Z,49.90
2022-12-03T15:39:03.544Z,44.20
2022-12-03T15:40:03.517Z,48.90
2022-12-03T15:41:03.484Z,43.70
2022-12-03T15:42:03.457Z,44.50
2022-12-03T15:43:03.452Z,44.40
2022-12-03T15:44:03.421Z,50.50
2022-12-03T15:45:06.390Z,46.20
2022-12-03T15:46:03.463Z,53.70
2022-12-03T15:47:03.429Z,49.40
2022-12-03T15:48:03.383Z,48.10
2022-12-03T15:49:03.343Z,45.40
2022-12-03T15:50:03.341Z,45.70
2022-12-03T15:51:03.655Z,50.90
2022-12-03T15:52:03.326Z,47.30
2022-12-03T15:53:03.292Z,45.20
2022-12-03T15:54:03.302Z,48.20
2022-12-03T15:55:03.287Z,46.60
2022-12-03T15:56:03.271Z,48.10
2022-12-03T15:57:03.255Z,46.00
2022-12-03T15:58:03.244Z,47.90
2022-12-03T15:59:03.223Z,47.90
2022-12-03T16:00:03.265Z,45.10
2022-12-03T16:01:03.257Z,50.70
2022-12-03T16:02:03.346Z,51.10
2022-12-03T16:03:03.266Z,47.30
2022-12-03T16:04:03.147Z,49.50
2022-12-03T16:05:03.153Z,45.20
2022-12-03T16:06:03.126Z,49.80
2022-12-03T16:07:03.114Z,51.30
2022-12-03T16:08:03.160Z,49.40
2022-12-03T16:09:03.086Z,48.80
2022-12-03T16:10:03.142Z,47.50
2022-12-03T16:11:03.092Z,50.50
2022-12-03T16:12:03.062Z,52.70
2022-12-03T16:13:03.039Z,49.70
2022-12-03T16:14:03.023Z,47.30
2022-12-03T16:15:03.010Z,50.40
2022-12-03T16:16:03.081Z,47.70
2022-12-03T16:17:02.991Z,46.00
2022-12-03T16:18:02.965Z,55.30
2022-12-03T16:19:02.942Z,49.50
2022-12-03T16:20:03.078Z,51.60
2022-12-03T16:21:02.920Z,43.90
2022-12-03T16:22:02.934Z,47.60
2022-12-03T16:23:02.920Z,54.70
2022-12-03T16:24:02.887Z,45.30
2022-12-03T16:25:02.924Z,50.80
2022-12-03T16:26:02.859Z,50.20
2022-12-03T16:27:02.856Z,45.70
2022-12-03T16:28:02.837Z,47.60
2022-12-03T16:29:02.835Z,45.00
2022-12-03T16:30:02.798Z,53.40
2022-12-03T16:31:02.859Z,47.00
2022-12-03T16:32:02.816Z,56.00
2022-12-03T16:33:02.753Z,50.00
2022-12-03T16:34:02.742Z,45.60
2022-12-03T16:35:02.748Z,45.30
2022-12-03T16:36:02.756Z,55.00
2022-12-03T16:37:02.732Z,53.50
2022-12-03T16:38:02.727Z,48.70
2022-12-03T16:39:02.700Z,54.50
2022-12-03T16:40:02.765Z,59.40
2022-12-03T16:41:02.644Z,55.30
2022-12-03T16:42:02.629Z,51.80
2022-12-03T16:43:02.654Z,55.00
2022-12-03T16:44:02.651Z,53.20
2022-12-03T16:45:02.583Z,49.90
2022-12-03T16:46:02.676Z,51.80
2022-12-03T16:47:02.577Z,50.30
2022-12-03T16:48:02.624Z,47.40
2022-12-03T16:49:02.559Z,50.80
2022-12-03T16:50:02.541Z,55.00
2022-12-03T16:51:02.549Z,52.50
2022-12-03T16:52:02.513Z,61.10
2022-12-03T16:53:02.518Z,53.20
2022-12-03T16:54:02.470Z,59.50
2022-12-03T16:55:02.488Z,54.60
2022-12-03T16:56:02.477Z,48.30
2022-12-03T16:57:02.439Z,52.20
2022-12-03T16:58:02.456Z,56.00
2022-12-03T16:59:02.478Z,54.90
2022-12-03T17:00:02.433Z,53.90
2022-12-03T17:01:02.369Z,52.90
2022-12-03T17:02:02.418Z,64.30
2022-12-03T17:03:02.440Z,53.10
2022-12-03T17:04:02.333Z,51.90
2022-12-03T17:05:02.348Z,57.50
2022-12-03T17:06:02.317Z,54.10
2022-12-03T17:07:01.308Z,55.50
2022-12-03T17:08:02.433Z,54.70
2022-12-03T17:09:02.279Z,54.90
2022-12-03T17:10:02.350Z,53.20
2022-12-03T17:11:02.320Z,60.00
2022-12-03T17:12:02.260Z,54.50
2022-12-03T17:13:10.531Z,53.10
2022-12-03T17:14:02.234Z,57.10
2022-12-03T17:15:02.204Z,56.10
2022-12-03T17:16:02.284Z,57.80
2022-12-03T17:17:02.174Z,52.10
2022-12-03T17:18:02.170Z,53.10
2022-12-03T17:19:02.143Z,52.30
2022-12-03T17:20:02.152Z,57.30
2022-12-03T17:21:02.135Z,50.30
2022-12-03T17:22:02.098Z,57.80
2022-12-03T17:23:02.108Z,56.90
2022-12-03T17:24:02.087Z,51.60
2022-12-03T17:25:02.055Z,58.20
2022-12-03T17:26:02.054Z,57.80
2022-12-03T17:27:02.058Z,52.10
2022-12-03T17:28:02.033Z,52.50
2022-12-03T17:29:02.005Z,55.60
2022-12-03T17:30:01.984Z,55.10
2022-12-03T17:31:01.994Z,62.70
2022-12-03T17:32:02.082Z,57.10
2022-12-03T17:33:02.061Z,59.80
2022-12-03T17:34:01.943Z,52.20
2022-12-03T17:35:01.932Z,52.10
2022-12-03T17:36:01.951Z,54.20
2022-12-03T17:37:01.924Z,52.60
2022-12-03T17:38:01.925Z,52.40
2022-12-03T17:39:01.861Z,48.10
2022-12-03T17:40:01.862Z,52.90
2022-12-03T17:41:01.846Z,50.90
2022-12-03T17:42:01.821Z,49.90
2022-12-03T17:43:01.847Z,54.00
2022-12-03T17:44:06.013Z,55.00
2022-12-03T17:45:01.839Z,55.30
2022-12-03T17:46:01.935Z,55.50
2022-12-03T17:47:01.845Z,55.30
2022-12-03T17:48:01.801Z,56.40
2022-12-03T17:49:01.781Z,61.60
2022-12-03T17:50:01.719Z,62.00
2022-12-03T17:51:01.721Z,59.90
2022-12-03T17:52:01.698Z,57.20
2022-12-03T17:53:01.775Z,53.00
2022-12-03T17:54:01.678Z,54.50
2022-12-03T17:55:11.699Z,55.90
2022-12-03T17:56:01.663Z,56.30
2022-12-03T17:57:01.612Z,58.60
2022-12-03T17:58:01.619Z,50.40
2022-12-03T17:59:01.614Z,50.40
2022-12-03T18:00:01.592Z,48.50
2022-12-03T18:01:03.118Z,54.00
2022-12-03T18:02:01.740Z,54.10
2022-12-03T18:03:01.552Z,53.50
2022-12-03T18:04:01.606Z,59.80
2022-12-03T18:05:01.538Z,61.30
2022-12-03T18:06:01.504Z,61.20
2022-12-03T18:07:02.660Z,54.30
2022-12-03T18:08:01.528Z,49.90
2022-12-03T18:09:01.473Z,58.10
2022-12-03T18:10:01.456Z,54.10
2022-12-03T18:11:01.444Z,54.10
2022-12-03T18:12:01.420Z,51.10
2022-12-03T18:13:02.225Z,58.70
2022-12-03T18:14:01.461Z,54.10
2022-12-03T18:15:01.363Z,47.90
2022-12-03T18:16:01.458Z,52.50
2022-12-03T18:17:01.359Z,64.90
2022-12-03T18:18:01.354Z,55.50
2022-12-03T18:19:06.188Z,53.60
2022-12-03T18:20:01.449Z,57.70
2022-12-03T18:21:01.288Z,55.90
2022-12-03T18:22:01.311Z,55.20
2022-12-03T18:23:01.284Z,53.70
2022-12-03T18:24:01.279Z,60.20
2022-12-03T18:25:01.258Z,53.30
2022-12-03T18:26:01.240Z,55.00
2022-12-03T18:27:01.209Z,57.70
2022-12-03T18:28:01.228Z,56.30
2022-12-03T18:29:01.212Z,53.60
2022-12-03T18:30:01.169Z,50.10
2022-12-03T18:31:01.225Z,56.30
2022-12-03T18:32:01.196Z,50.20
2022-12-03T18:33:01.143Z,52.80
2022-12-03T18:34:01.145Z,52.80
2022-12-03T18:35:01.106Z,56.30
2022-12-03T18:36:01.152Z,51.80
2022-12-03T18:37:01.082Z,54.00
2022-12-03T18:38:01.053Z,54.90
2022-12-03T18:39:01.074Z,55.60
2022-12-03T18:40:01.256Z,55.80
2022-12-03T18:41:01.027Z,57.00
2022-12-03T18:42:01.042Z,61.40
2022-12-03T18:43:01.018Z,53.60
2022-12-03T18:44:00.982Z,54.40
2022-12-03T18:45:00.969Z,55.10
2022-12-03T18:46:00.961Z,52.10
2022-12-03T18:47:01.022Z,57.90
2022-12-03T18:48:01.019Z,57.10
2022-12-03T18:49:00.923Z,59.60
2022-12-03T18:50:00.901Z,59.40
2022-12-03T18:51:00.893Z,57.60
2022-12-03T18:52:00.954Z,54.10
2022-12-03T18:53:00.880Z,56.20
2022-12-03T18:54:00.865Z,54.80
2022-12-03T18:55:00.878Z,55.50
2022-12-03T18:56:00.821Z,54.40
2022-12-03T18:57:00.814Z,51.60
2022-12-03T18:58:01.678Z,53.00
2022-12-03T18:59:00.794Z,58.10
2022-12-03T19:00:00.817Z,52.10
2022-12-03T19:01:00.827Z,58.70
2022-12-03T19:02:00.785Z,55.00
2022-12-03T19:03:03.555Z,52.40
2022-12-03T19:04:00.763Z,53.20
2022-12-03T19:05:00.717Z,55.10
2022-12-03T19:06:00.698Z,54.30
2022-12-03T19:07:00.685Z,53.20
2022-12-03T19:08:00.819Z,49.60
2022-12-03T19:09:00.681Z,51.50
2022-12-03T19:10:00.632Z,53.10
2022-12-03T19:11:00.619Z,56.90
2022-12-03T19:12:00.622Z,50.60
2022-12-03T19:13:00.607Z,52.80
2022-12-03T19:14:00.599Z,49.50
2022-12-03T19:15:00.561Z,52.80
2022-12-03T19:16:00.650Z,46.90
2022-12-03T19:17:00.571Z,51.70
2022-12-03T19:18:00.525Z,54.90
2022-12-03T19:19:00.529Z,49.70
2022-12-03T19:20:00.520Z,49.00
2022-12-03T19:21:00.492Z,52.20
2022-12-03T19:22:00.493Z,54.10
2022-12-03T19:23:00.489Z,56.70
2022-12-03T19:24:23.272Z,53.70
2022-12-03T19:25:00.500Z,51.20
2022-12-03T19:26:00.417Z,50.70
2022-12-03T19:27:00.402Z,53.70
2022-12-03T19:28:00.451Z,53.00
2022-12-03T19:29:00.385Z,50.40
2022-12-03T19:30:00.362Z,50.90
2022-12-03T19:31:00.512Z,54.80
2022-12-03T19:32:00.482Z,53.60
2022-12-03T19:33:00.323Z,56.10
2022-12-03T19:34:00.325Z,58.00
2022-12-03T19:35:00.315Z,50.30
2022-12-03T19:36:00.329Z,52.80
2022-12-03T19:37:00.277Z,49.30
2022-12-03T19:38:00.256Z,49.50
2022-12-03T19:39:00.266Z,51.60
2022-12-03T19:40:00.266Z,52.50
2022-12-03T19:41:00.274Z,49.20
2022-12-03T19:42:00.217Z,53.70
2022-12-03T19:43:00.195Z,53.70
2022-12-03T19:44:00.194Z,54.10
2022-12-03T19:45:00.304Z,54.00
2022-12-03T19:46:00.191Z,56.50
2022-12-03T19:47:00.177Z,56.60
2022-12-03T19:48:00.116Z,56.40
2022-12-03T19:49:00.115Z,51.70
2022-12-03T19:50:00.130Z,53.00
2022-12-03T19:51:26.244Z,53.30
2022-12-03T19:52:00.072Z,50.30
2022-12-03T19:53:00.123Z,49.40
2022-12-03T19:54:00.047Z,51.80
2022-12-03T19:55:00.037Z,56.50
2022-12-03T19:56:00.026Z,48.50
2022-12-03T19:56:59.995Z,54.20
2022-12-03T19:57:59.982Z,54.90
2022-12-03T19:58:59.984Z,56.80
2022-12-03T19:59:59.967Z,50.40
2022-12-03T20:00:59.994Z,52.40
2022-12-03T20:02:00.039Z,53.50
2022-12-03T20:03:00.004Z,48.00
2022-12-03T20:03:59.928Z,48.60
2022-12-03T20:04:59.986Z,57.60
2022-12-03T20:05:59.899Z,50.70
2022-12-03T20:06:59.861Z,50.20
2022-12-03T20:08:00.005Z,56.50
2022-12-03T20:08:59.860Z,51.30
2022-12-03T20:09:59.962Z,55.20
2022-12-03T20:10:59.880Z,54.20
2022-12-03T20:11:59.819Z,53.70
2022-12-03T20:12:59.795Z,50.30
2022-12-03T20:13:59.763Z,50.50
2022-12-03T20:14:59.763Z,54.00
2022-12-03T20:15:59.787Z,48.50
2022-12-03T20:16:59.845Z,59.00
2022-12-03T20:17:59.717Z,56.50
2022-12-03T20:18:59.728Z,52.40
2022-12-03T20:19:59.678Z,51.00
2022-12-03T20:20:59.691Z,54.60
2022-12-03T20:22:02.710Z,55.90
2022-12-03T20:22:59.656Z,56.70
2022-12-03T20:23:59.629Z,57.90
2022-12-03T20:24:59.623Z,54.20
2022-12-03T20:25:59.610Z,50.70
2022-12-03T20:26:59.636Z,55.10
2022-12-03T20:27:59.789Z,53.70
2022-12-03T20:28:59.583Z,54.90
2022-12-03T20:29:59.547Z,55.10
2022-12-03T20:30:59.556Z,53.40
2022-12-03T20:31:59.606Z,56.00
2022-12-03T20:32:59.523Z,56.70
2022-12-03T20:33:59.514Z,51.90
2022-12-03T20:34:59.489Z,49.10
2022-12-03T20:35:59.490Z,49.20
2022-12-03T20:36:59.483Z,49.30
2022-12-03T20:37:59.457Z,55.20
2022-12-03T20:38:59.435Z,51.70
2022-12-03T20:39:59.433Z,56.20
2022-12-03T20:40:59.426Z,51.90
2022-12-03T20:41:59.384Z,55.10
2022-12-03T20:42:59.394Z,55.40
2022-12-03T20:43:59.362Z,54.20
2022-12-03T20:44:59.348Z,52.00
2022-12-03T20:46:02.708Z,54.00
2022-12-03T20:46:59.330Z,51.90
2022-12-03T20:47:59.309Z,51.60
2022-12-03T20:48:59.303Z,53.40
2022-12-03T20:49:59.283Z,49.90
2022-12-03T20:50:59.353Z,51.10
2022-12-03T20:52:02.829Z,46.30
2022-12-03T20:53:23.325Z,54.40
2022-12-03T20:53:59.246Z,51.60
2022-12-03T20:54:59.224Z,50.60
2022-12-03T20:55:59.231Z,54.00
2022-12-03T20:56:59.236Z,50.10
2022-12-03T20:57:59.188Z,61.10
2022-12-03T20:58:59.201Z,53.10
2022-12-03T20:59:59.158Z,54.80
2022-12-03T21:00:59.167Z,54.50
2022-12-03T21:01:59.259Z,49.30
2022-12-03T21:02:59.168Z,49.70
2022-12-03T21:03:59.112Z,48.20
2022-12-03T21:04:59.117Z,51.30
2022-12-03T21:05:59.089Z,50.40
2022-12-03T21:06:59.064Z,52.70
2022-12-03T21:07:59.132Z,57.80
2022-12-03T21:08:59.063Z,56.80
2022-12-03T21:09:59.016Z,51.60
2022-12-03T21:10:59.020Z,52.80
2022-12-03T21:11:59.005Z,55.90
2022-12-03T21:12:58.971Z,56.30
2022-12-03T21:13:58.991Z,55.40
2022-12-03T21:14:58.965Z,53.00
2022-12-03T21:15:58.963Z,52.40
2022-12-03T21:17:08.353Z,60.10
2022-12-03T21:17:58.960Z,57.70
2022-12-03T21:18:58.912Z,58.50
2022-12-03T21:19:58.887Z,56.40
2022-12-03T21:20:58.885Z,59.20
2022-12-03T21:21:58.881Z,54.90
2022-12-03T21:22:58.837Z,55.70
2022-12-03T21:23:58.819Z,52.20
2022-12-03T21:24:58.829Z,58.40
2022-12-03T21:25:58.801Z,60.40
2022-12-03T21:26:58.786Z,55.40
2022-12-03T21:27:58.792Z,55.60
2022-12-03T21:28:58.770Z,54.20
2022-12-03T21:29:58.761Z,55.20
2022-12-03T21:30:58.839Z,55.90
2022-12-03T21:31:58.728Z,54.10
2022-12-03T21:32:58.724Z,54.10
2022-12-03T21:33:58.698Z,55.20
2022-12-03T21:34:58.705Z,54.20
2022-12-03T21:35:58.679Z,60.80
2022-12-03T21:36:58.662Z,58.50
2022-12-03T21:37:58.639Z,52.70
2022-12-03T21:38:58.625Z,54.20
2022-12-03T21:39:58.610Z,58.00
2022-12-03T21:40:58.613Z,59.50
2022-12-03T21:42:33.861Z,58.50
2022-12-03T21:42:58.609Z,55.30
2022-12-03T21:43:58.581Z,58.10
2022-12-03T21:44:58.599Z,58.20
2022-12-03T21:45:58.553Z,53.00
2022-12-03T21:47:10.204Z,56.60
2022-12-03T21:47:58.566Z,57.50
2022-12-03T21:48:58.520Z,57.30
2022-12-03T21:49:58.496Z,59.90
2022-12-03T21:50:58.493Z,60.40
2022-12-03T21:51:58.485Z,60.90
2022-12-03T21:52:58.458Z,58.40
2022-12-03T21:53:58.425Z,57.90
2022-12-03T21:54:58.427Z,60.90
2022-12-03T21:55:58.399Z,61.10
2022-12-03T21:56:58.398Z,59.70
2022-12-03T21:57:58.364Z,54.10
2022-12-03T21:58:58.354Z,56.20
2022-12-03T21:59:58.343Z,57.00
2022-12-03T22:00:58.350Z,56.50
2022-12-03T22:01:58.430Z,57.90
2022-12-03T22:02:58.368Z,56.20
2022-12-03T22:03:58.281Z,56.20
2022-12-03T22:04:58.281Z,54.70
2022-12-03T22:05:58.262Z,56.40
2022-12-03T22:06:58.279Z,60.00
2022-12-03T22:07:58.342Z,59.60
2022-12-03T22:08:58.234Z,62.70
2022-12-03T22:09:58.247Z,56.70
2022-12-03T22:10:58.207Z,58.90
2022-12-03T22:11:58.194Z,59.00
2022-12-03T22:12:58.184Z,55.60
2022-12-03T22:13:58.165Z,60.30
2022-12-03T22:14:58.161Z,56.40
2022-12-03T22:15:58.222Z,60.50
2022-12-03T22:16:58.197Z,59.00
2022-12-03T22:17:58.108Z,56.50
2022-12-03T22:18:58.099Z,56.10
2022-12-03T22:19:58.081Z,59.30
2022-12-03T22:20:58.073Z,59.30
2022-12-03T22:21:58.051Z,56.80
2022-12-03T22:22:58.035Z,62.50
2022-12-03T22:23:58.028Z,57.10
2022-12-03T22:24:58.026Z,59.00
2022-12-03T22:25:57.993Z,56.10
2022-12-03T22:26:58.024Z,58.40
2022-12-03T22:27:58.001Z,57.70
2022-12-03T22:28:57.958Z,57.50
2022-12-03T22:29:57.946Z,59.80
2022-12-03T22:30:58.044Z,57.80
2022-12-03T22:31:57.942Z,57.10
2022-12-03T22:32:57.902Z,62.90
2022-12-03T22:33:57.894Z,52.90
2022-12-03T22:34:57.928Z,59.90
2022-12-03T22:35:57.875Z,64.10
2022-12-03T22:36:57.880Z,53.60
2022-12-03T22:37:57.863Z,54.90
2022-12-03T22:38:57.827Z,61.40
2022-12-03T22:39:58.102Z,54.60
2022-12-03T22:40:57.817Z,58.50
2022-12-03T22:41:57.799Z,61.10
2022-12-03T22:42:57.774Z,54.20
2022-12-03T22:43:57.813Z,56.90
2022-12-03T22:44:57.770Z,57.20
2022-12-03T22:45:57.813Z,55.70
2022-12-03T22:46:57.731Z,57.90
2022-12-03T22:47:57.724Z,58.30
2022-12-03T22:49:00.593Z,56.80
2022-12-03T22:49:57.859Z,55.30
2022-12-03T22:50:57.689Z,55.30
2022-12-03T22:51:57.693Z,56.00
2022-12-03T22:52:57.641Z,59.10
2022-12-03T22:53:57.628Z,53.60
2022-12-03T22:54:57.647Z,57.90
2022-12-03T22:55:57.620Z,61.40
2022-12-03T22:56:57.595Z,57.50
2022-12-03T22:57:57.581Z,59.20
2022-12-03T22:58:57.569Z,58.20
2022-12-03T22:59:57.720Z,59.40
2022-12-03T23:01:02.643Z,53.40
2022-12-03T23:01:57.527Z,58.00
2022-12-03T23:02:57.584Z,59.00
2022-12-03T23:03:57.550Z,58.00
2022-12-03T23:04:57.485Z,58.80
2022-12-03T23:05:57.494Z,52.60
2022-12-03T23:06:57.458Z,56.30